Time;durP1;ratioP1;P1;durP2;ratioP2;P2;SDS_P1;SDS_P2;PMS_P1;PMS_P2;Temp;Humidity;BMP_temperature;BMP_pressure;BME280_temperature;BME280_humidity;BME280_pressure;Samples;Min_cycle;Max_cycle;Signal;HPM_P1;HPM_P2
2023/06/06 00:01:09;;;;;;;21.20;10.50;;;;;;;;;;5041758;28;25055;-74
2023/06/06 00:03:36;;;;;;;20.52;9.32;;;;;;;;;;5041178;28;25073;-74
2023/06/06 00:06:02;;;;;;;21.65;9.50;;;;;;;;;;5057170;28;25101;-72
2023/06/06 00:08:28;;;;;;;19.42;8.98;;;;;;;;;;5039658;28;25045;-74
2023/06/06 00:10:55;;;;;;;20.10;10.27;;;;;;;;;;5048197;28;25052;-72
2023/06/06 00:13:21;;;;;;;18.63;10.10;;;;;;;;;;5046425;28;25081;-73
2023/06/06 00:15:47;;;;;;;18.70;9.40;;;;;;;;;;5044156;28;25064;-73
2023/06/06 00:18:13;;;;;;;14.00;8.10;;;;;;;;;;5044500;28;25061;-73
2023/06/06 00:20:40;;;;;;;20.35;8.73;;;;;;;;;;5041715;28;25087;-75
2023/06/06 00:23:07;;;;;;;15.30;8.25;;;;;;;;;;5058179;28;25154;-74
2023/06/06 00:25:33;;;;;;;22.67;9.77;;;;;;;;;;5053915;28;25069;-73
2023/06/06 00:28:00;;;;;;;20.20;8.38;;;;;;;;;;5043594;28;25082;-74
2023/06/06 00:30:26;;;;;;;18.27;9.50;;;;;;;;;;5031077;28;25057;-72
2023/06/06 00:32:53;;;;;;;18.83;8.52;;;;;;;;;;5047027;28;25065;-72
2023/06/06 00:35:19;;;;;;;19.65;8.98;;;;;;;;;;5061694;28;25140;-74
2023/06/06 00:37:45;;;;;;;19.98;8.70;;;;;;;;;;5066037;28;25097;-73
2023/06/06 00:40:11;;;;;;;18.73;8.90;;;;;;;;;;5051122;28;25101;-74
2023/06/06 00:42:37;;;;;;;21.08;9.18;;;;;;;;;;5042409;28;25066;-73
2023/06/06 00:45:04;;;;;;;15.40;7.97;;;;;;;;;;5058384;28;25113;-73
2023/06/06 00:47:29;;;;;;;14.80;7.10;;;;;;;;;;5057937;28;25058;-71
2023/06/06 00:49:56;;;;;;;14.55;7.72;;;;;;;;;;5056442;28;25123;-74
2023/06/06 00:52:23;;;;;;;18.23;9.00;;;;;;;;;;5055556;28;25067;-73
2023/06/06 00:54:50;;;;;;;16.70;7.45;;;;;;;;;;5034195;28;25091;-72
2023/06/06 00:57:18;;;;;;;16.80;7.93;;;;;;;;;;5038983;28;25073;-71
2023/06/06 00:59:44;;;;;;;14.13;8.23;;;;;;;;;;5040692;28;25142;-71
2023/06/06 01:02:17;;;;;;;14.93;8.13;;;;;;;;;;5052359;28;25076;-73
2023/06/06 01:04:43;;;;;;;16.48;8.55;;;;;;;;;;5057897;28;25089;-73
2023/06/06 01:07:12;;;;;;;15.57;8.18;;;;;;;;;;5056742;28;25069;-71
2023/06/06 01:09:38;;;;;;;19.05;8.25;;;;;;;;;;5043507;28;25050;-70
2023/06/06 01:12:06;;;;;;;14.57;7.75;;;;;;;;;;5052978;28;25163;-72
2023/06/06 01:14:33;;;;;;;12.43;7.88;;;;;;;;;;5055292;28;25150;-74
2023/06/06 01:17:02;;;;;;;13.18;7.13;;;;;;;;;;5054422;28;25167;-73
2023/06/06 01:19:29;;;;;;;12.50;8.02;;;;;;;;;;5057793;28;25064;-72
2023/06/06 01:21:56;;;;;;;11.13;7.38;;;;;;;;;;5054393;28;25114;-72
2023/06/06 01:24:24;;;;;;;14.20;7.43;;;;;;;;;;5054173;28;25054;-72
2023/06/06 01:26:50;;;;;;;13.07;7.70;;;;;;;;;;5058649;28;25095;-71
2023/06/06 01:29:16;;;;;;;19.52;7.57;;;;;;;;;;5057192;28;25058;-74
2023/06/06 01:31:45;;;;;;;16.40;8.38;;;;;;;;;;5056370;28;25067;-73
2023/06/06 01:34:31;;;;;;;19.45;8.23;;;;;;;;;;5056934;28;25136;-72
2023/06/06 01:37:06;;;;;;;15.05;8.20;;;;;;;;;;5041702;28;25058;-73
2023/06/06 01:39:34;;;;;;;13.93;8.50;;;;;;;;;;5057059;28;25055;-72
2023/06/06 01:42:00;;;;;;;15.75;7.28;;;;;;;;;;5058574;28;25068;-74
2023/06/06 01:44:27;;;;;;;14.13;8.35;;;;;;;;;;5056175;28;25072;-72
2023/06/06 01:46:54;;;;;;;17.15;8.35;;;;;;;;;;5042431;28;25082;-72
2023/06/06 01:49:20;;;;;;;14.15;7.30;;;;;;;;;;5056599;28;25080;-73
2023/06/06 01:51:46;;;;;;;14.88;7.82;;;;;;;;;;5057185;28;25076;-72
2023/06/06 01:54:12;;;;;;;17.15;8.05;;;;;;;;;;5042016;28;25067;-72
2023/06/06 01:56:39;;;;;;;16.38;8.65;;;;;;;;;;5058186;28;25108;-72
2023/06/06 01:59:05;;;;;;;18.67;7.68;;;;;;;;;;5055064;28;25156;-72
2023/06/06 02:01:30;;;;;;;14.75;7.95;;;;;;;;;;5057679;28;25083;-73
2023/06/06 02:03:56;;;;;;;15.23;8.18;;;;;;;;;;5043819;28;25123;-73
2023/06/06 02:06:22;;;;;;;14.15;8.02;;;;;;;;;;5040284;28;25065;-73
2023/06/06 02:08:49;;;;;;;19.13;8.43;;;;;;;;;;5055613;28;25120;-72
2023/06/06 02:11:15;;;;;;;13.07;7.80;;;;;;;;;;5057952;28;25130;-70
2023/06/06 02:13:41;;;;;;;13.93;7.30;;;;;;;;;;5056672;28;25155;-73
2023/06/06 02:16:07;;;;;;;18.60;7.63;;;;;;;;;;5056551;28;25062;-72
2023/06/06 02:18:33;;;;;;;15.80;7.53;;;;;;;;;;5034123;28;25063;-73
2023/06/06 02:20:59;;;;;;;15.63;8.50;;;;;;;;;;5056226;28;25107;-72
2023/06/06 02:23:25;;;;;;;14.68;7.60;;;;;;;;;;5049406;28;25078;-73
2023/06/06 02:25:51;;;;;;;15.90;7.43;;;;;;;;;;5055522;28;25010;-72
2023/06/06 02:28:17;;;;;;;19.27;8.70;;;;;;;;;;5050840;28;25056;-74
2023/06/06 02:30:43;;;;;;;18.92;8.45;;;;;;;;;;5054036;28;25053;-75
2023/06/06 02:33:09;;;;;;;15.35;7.85;;;;;;;;;;5052793;28;25107;-73
2023/06/06 02:35:35;;;;;;;21.58;8.02;;;;;;;;;;5053825;28;25089;-73
2023/06/06 02:38:01;;;;;;;14.02;7.18;;;;;;;;;;5052343;28;25153;-73
2023/06/06 02:40:27;;;;;;;15.10;7.75;;;;;;;;;;5048473;28;25084;-72
2023/06/06 02:42:53;;;;;;;21.25;8.98;;;;;;;;;;5039706;28;25090;-73
2023/06/06 02:45:21;;;;;;;13.00;7.18;;;;;;;;;;5042394;28;25086;-72
2023/06/06 02:47:47;;;;;;;17.05;7.78;;;;;;;;;;5044654;28;25059;-72
2023/06/06 02:50:13;;;;;;;17.73;7.32;;;;;;;;;;5039855;28;25076;-71
2023/06/06 02:52:40;;;;;;;20.67;7.53;;;;;;;;;;5036186;28;25067;-72
2023/06/06 02:55:07;;;;;;;16.35;8.73;;;;;;;;;;5038108;28;25087;-73
2023/06/06 02:57:33;;;;;;;16.77;7.95;;;;;;;;;;5040334;28;25087;-74
2023/06/06 02:59:59;;;;;;;17.98;8.48;;;;;;;;;;5041524;28;25101;-74
2023/06/06 03:02:25;;;;;;;14.00;7.88;;;;;;;;;;5037244;28;25088;-72
2023/06/06 03:04:51;;;;;;;14.63;7.22;;;;;;;;;;5037097;28;25173;-73
2023/06/06 03:07:17;;;;;;;19.33;8.23;;;;;;;;;;5035577;28;25068;-73
2023/06/06 03:09:43;;;;;;;18.15;7.80;;;;;;;;;;5042879;28;25070;-74
2023/06/06 03:12:11;;;;;;;16.60;9.23;;;;;;;;;;5038218;28;25080;-74
2023/06/06 03:14:37;;;;;;;11.55;7.13;;;;;;;;;;5038050;28;25076;-74
2023/06/06 03:17:03;;;;;;;14.40;7.47;;;;;;;;;;5037185;28;25102;-72
2023/06/06 03:19:30;;;;;;;16.63;8.57;;;;;;;;;;5038635;28;25178;-75
2023/06/06 03:21:57;;;;;;;17.13;8.70;;;;;;;;;;5037628;28;25064;-74
2023/06/06 03:24:25;;;;;;;14.77;7.45;;;;;;;;;;5036553;28;25200;-73
2023/06/06 03:26:51;;;;;;;15.05;7.43;;;;;;;;;;5038609;28;25060;-72
2023/06/06 03:29:17;;;;;;;14.68;8.07;;;;;;;;;;5036806;28;25076;-73
2023/06/06 03:31:44;;;;;;;13.55;7.65;;;;;;;;;;5035698;28;25047;-73
2023/06/06 03:34:10;;;;;;;23.05;7.30;;;;;;;;;;5036387;28;25061;-73
2023/06/06 03:36:36;;;;;;;17.17;7.82;;;;;;;;;;5038136;28;25062;-73
2023/06/06 03:39:03;;;;;;;18.25;7.85;;;;;;;;;;5037209;28;25078;-72
2023/06/06 03:41:30;;;;;;;19.65;8.05;;;;;;;;;;5039803;28;25076;-73
2023/06/06 03:43:56;;;;;;;18.80;7.90;;;;;;;;;;5050078;28;25067;-74
2023/06/06 03:46:23;;;;;;;15.07;7.00;;;;;;;;;;5039321;28;25084;-73
2023/06/06 03:48:49;;;;;;;15.15;7.97;;;;;;;;;;5035294;28;25071;-74
2023/06/06 03:51:15;;;;;;;18.90;8.85;;;;;;;;;;5034139;28;25074;-74
2023/06/06 03:53:42;;;;;;;23.50;8.05;;;;;;;;;;5035301;28;25052;-75
2023/06/06 03:56:08;;;;;;;11.18;6.82;;;;;;;;;;5037505;28;25046;-72
2023/06/06 03:58:34;;;;;;;14.50;7.95;;;;;;;;;;5034340;28;25175;-73
2023/06/06 04:01:01;;;;;;;19.35;7.95;;;;;;;;;;5041863;28;25064;-73
2023/06/06 04:03:27;;;;;;;16.10;8.05;;;;;;;;;;5055147;28;25083;-73
2023/06/06 04:05:53;;;;;;;13.55;7.85;;;;;;;;;;5040833;28;25076;-72
2023/06/06 04:08:20;;;;;;;14.07;7.28;;;;;;;;;;5038048;28;25139;-73
2023/06/06 04:10:46;;;;;;;18.35;8.02;;;;;;;;;;5040881;28;25058;-70
2023/06/06 04:13:12;;;;;;;13.65;8.05;;;;;;;;;;5039804;28;25069;-71
2023/06/06 04:15:38;;;;;;;12.15;6.70;;;;;;;;;;5043104;28;25166;-74
2023/06/06 04:18:05;;;;;;;17.15;7.55;;;;;;;;;;5039189;28;25115;-75
2023/06/06 04:20:32;;;;;;;15.18;7.10;;;;;;;;;;5037882;28;25053;-72
2023/06/06 04:23:00;;;;;;;14.15;8.18;;;;;;;;;;5036423;28;25142;-73
2023/06/06 04:25:26;;;;;;;15.68;6.90;;;;;;;;;;5058484;28;25056;-73
2023/06/06 04:27:52;;;;;;;17.75;8.32;;;;;;;;;;5057618;28;25091;-72
2023/06/06 04:30:22;;;;;;;16.67;7.03;;;;;;;;;;5060830;28;25129;-74
2023/06/06 04:32:48;;;;;;;16.15;7.28;;;;;;;;;;5057981;28;25058;-76
2023/06/06 04:35:15;;;;;;;14.20;8.20;;;;;;;;;;5059686;28;25181;-74
2023/06/06 04:37:41;;;;;;;19.27;7.43;;;;;;;;;;5062929;28;25480;-72
2023/06/06 04:40:10;;;;;;;14.00;6.97;;;;;;;;;;5063098;28;25054;-74
2023/06/06 04:42:36;;;;;;;13.40;7.30;;;;;;;;;;5059516;28;25058;-73
2023/06/06 04:45:03;;;;;;;13.25;6.97;;;;;;;;;;5044358;28;25061;-73
2023/06/06 04:47:32;;;;;;;13.70;7.35;;;;;;;;;;5057605;28;25084;-76
2023/06/06 04:49:58;;;;;;;13.00;6.90;;;;;;;;;;5058755;28;25127;-76
2023/06/06 04:52:24;;;;;;;17.55;6.72;;;;;;;;;;5059053;28;25099;-72
2023/06/06 04:54:51;;;;;;;12.85;6.50;;;;;;;;;;5057742;28;25183;-75
2023/06/06 04:57:17;;;;;;;12.38;6.43;;;;;;;;;;5059229;28;25081;-72
2023/06/06 04:59:50;;;;;;;12.60;6.70;;;;;;;;;;5058826;28;25059;-72
2023/06/06 05:02:20;;;;;;;17.23;6.90;;;;;;;;;;5057004;28;25059;-76
2023/06/06 05:04:46;;;;;;;12.35;7.13;;;;;;;;;;5045675;28;25090;-73
2023/06/06 05:07:13;;;;;;;12.05;6.25;;;;;;;;;;5057591;28;25105;-73
2023/06/06 05:09:39;;;;;;;16.73;7.43;;;;;;;;;;5058579;28;25056;-73
2023/06/06 05:12:05;;;;;;;22.10;6.88;;;;;;;;;;5058892;28;25106;-72
2023/06/06 05:14:31;;;;;;;16.23;7.32;;;;;;;;;;5057978;28;25057;-71
2023/06/06 05:16:57;;;;;;;14.38;6.88;;;;;;;;;;5063239;28;25087;-74
2023/06/06 05:19:23;;;;;;;14.75;7.25;;;;;;;;;;5058096;28;25075;-73
2023/06/06 05:21:49;;;;;;;14.38;7.00;;;;;;;;;;5060398;28;25117;-72
2023/06/06 05:24:15;;;;;;;16.52;7.40;;;;;;;;;;5062242;28;25065;-75
2023/06/06 05:26:42;;;;;;;17.90;7.95;;;;;;;;;;5058540;28;25154;-76
2023/06/06 05:29:08;;;;;;;13.55;6.80;;;;;;;;;;5057043;28;25081;-75
2023/06/06 05:31:34;;;;;;;15.20;7.35;;;;;;;;;;5060645;28;25067;-74
2023/06/06 05:34:02;;;;;;;18.30;7.40;;;;;;;;;;5060046;28;25089;-73
2023/06/06 05:36:28;;;;;;;15.50;7.25;;;;;;;;;;5045468;28;25091;-74
2023/06/06 05:38:54;;;;;;;19.33;7.63;;;;;;;;;;5057976;28;25066;-72
2023/06/06 05:41:20;;;;;;;15.38;7.88;;;;;;;;;;5054744;28;25047;-76
2023/06/06 05:43:46;;;;;;;17.10;6.53;;;;;;;;;;5054274;28;25060;-74
2023/06/06 05:46:13;;;;;;;15.35;7.80;;;;;;;;;;5056643;28;25118;-74
2023/06/06 05:48:39;;;;;;;11.80;7.10;;;;;;;;;;5054279;28;25158;-71
2023/06/06 05:51:05;;;;;;;17.45;7.43;;;;;;;;;;5041880;28;24996;-72
2023/06/06 05:53:31;;;;;;;12.43;7.80;;;;;;;;;;5054692;28;25168;-70
2023/06/06 05:55:57;;;;;;;21.52;7.78;;;;;;;;;;5056602;28;25113;-71
2023/06/06 05:58:23;;;;;;;12.77;6.30;;;;;;;;;;5054584;28;25054;-72
2023/06/06 06:00:49;;;;;;;15.73;6.88;;;;;;;;;;5063378;28;25078;-73
2023/06/06 06:03:15;;;;;;;17.73;7.30;;;;;;;;;;5065114;28;25060;-69
2023/06/06 06:05:42;;;;;;;13.45;7.22;;;;;;;;;;5055635;28;25066;-73
2023/06/06 06:08:08;;;;;;;16.30;6.63;;;;;;;;;;5061609;28;25128;-70
2023/06/06 06:10:35;;;;;;;16.00;6.85;;;;;;;;;;5060766;28;25060;-72
2023/06/06 06:13:01;;;;;;;14.00;6.30;;;;;;;;;;5065213;28;25066;-71
2023/06/06 06:15:29;;;;;;;14.60;6.30;;;;;;;;;;5069629;28;25088;-72
2023/06/06 06:17:55;;;;;;;11.70;6.20;;;;;;;;;;5058175;28;25117;-71
2023/06/06 06:20:21;;;;;;;14.20;5.82;;;;;;;;;;5067595;28;25103;-71
2023/06/06 06:22:48;;;;;;;12.40;5.85;;;;;;;;;;5059493;28;25049;-72
2023/06/06 06:25:14;;;;;;;13.82;6.13;;;;;;;;;;5054430;28;25096;-74
2023/06/06 06:27:40;;;;;;;13.25;6.63;;;;;;;;;;5055852;28;25047;-70
2023/06/06 06:30:07;;;;;;;14.63;6.85;;;;;;;;;;5058033;28;25142;-71
2023/06/06 06:32:33;;;;;;;11.45;5.47;;;;;;;;;;5053519;28;25051;-72
2023/06/06 06:35:00;;;;;;;17.58;6.45;;;;;;;;;;5055085;28;25065;-72
2023/06/06 06:37:26;;;;;;;14.45;6.18;;;;;;;;;;5054013;28;25090;-71
2023/06/06 06:39:52;;;;;;;12.63;5.57;;;;;;;;;;5054506;28;25070;-71
2023/06/06 06:42:18;;;;;;;12.95;6.63;;;;;;;;;;5051629;28;25069;-73
2023/06/06 06:44:44;;;;;;;13.05;6.13;;;;;;;;;;5053680;28;25058;-72
2023/06/06 06:47:10;;;;;;;16.95;5.82;;;;;;;;;;5053645;28;25054;-71
2023/06/06 06:49:38;;;;;;;16.73;5.57;;;;;;;;;;5053937;28;25076;-72
2023/06/06 06:52:05;;;;;;;14.52;5.50;;;;;;;;;;5053207;28;25071;-74
2023/06/06 06:54:34;;;;;;;16.92;7.10;;;;;;;;;;5055430;28;25068;-71
2023/06/06 06:57:00;;;;;;;13.65;6.72;;;;;;;;;;5055983;28;25061;-74
2023/06/06 06:59:26;;;;;;;16.73;6.65;;;;;;;;;;5060004;28;25062;-70
2023/06/06 07:01:52;;;;;;;15.07;6.15;;;;;;;;;;5065181;28;25060;-71
2023/06/06 07:04:19;;;;;;;11.93;6.68;;;;;;;;;;5069067;28;25471;-72
2023/06/06 07:06:46;;;;;;;13.90;5.90;;;;;;;;;;5078407;28;25057;-72
2023/06/06 07:09:13;;;;;;;12.25;5.93;;;;;;;;;;5080469;28;25046;-74
2023/06/06 07:11:39;;;;;;;8.35;5.80;;;;;;;;;;5079447;28;25062;-72
2023/06/06 07:14:05;;;;;;;12.93;6.88;;;;;;;;;;5076824;28;25114;-73
2023/06/06 07:16:31;;;;;;;9.93;5.20;;;;;;;;;;5070454;28;25072;-71
2023/06/06 07:18:57;;;;;;;15.55;7.00;;;;;;;;;;5069513;28;25054;-71
2023/06/06 07:21:25;;;;;;;12.70;5.22;;;;;;;;;;5074710;28;25073;-71
2023/06/06 07:23:52;;;;;;;13.43;5.80;;;;;;;;;;5056564;28;25058;-73
2023/06/06 07:26:21;;;;;;;11.48;6.10;;;;;;;;;;5044235;28;25071;-71
2023/06/06 07:28:48;;;;;;;9.13;5.40;;;;;;;;;;5058557;28;25093;-71
2023/06/06 07:31:15;;;;;;;12.43;6.05;;;;;;;;;;5057727;28;25050;-72
2023/06/06 07:33:41;;;;;;;13.20;5.93;;;;;;;;;;5062123;28;25083;-72
2023/06/06 07:36:07;;;;;;;11.13;6.00;;;;;;;;;;5058549;28;25092;-72
2023/06/06 07:38:33;;;;;;;10.95;5.57;;;;;;;;;;5050234;28;25065;-70
2023/06/06 07:40:59;;;;;;;11.10;5.82;;;;;;;;;;5048321;28;25060;-71
2023/06/06 07:43:25;;;;;;;13.20;5.90;;;;;;;;;;5042185;28;25064;-69
2023/06/06 07:45:51;;;;;;;15.55;5.97;;;;;;;;;;5056222;28;25067;-70
2023/06/06 07:48:17;;;;;;;15.25;7.13;;;;;;;;;;5077788;28;25078;-72
2023/06/06 07:50:43;;;;;;;13.25;6.68;;;;;;;;;;5078833;28;25067;-71
2023/06/06 07:53:10;;;;;;;17.40;6.47;;;;;;;;;;5072304;28;25064;-73
2023/06/06 07:55:37;;;;;;;14.55;6.53;;;;;;;;;;5057539;28;25078;-70
2023/06/06 07:58:05;;;;;;;12.18;6.63;;;;;;;;;;5055677;28;25064;-71
2023/06/06 08:00:31;;;;;;;10.05;6.10;;;;;;;;;;5037299;28;25056;-69
2023/06/06 08:02:57;;;;;;;12.57;5.95;;;;;;;;;;5056386;28;25076;-70
2023/06/06 08:05:23;;;;;;;10.98;5.88;;;;;;;;;;5053635;28;25151;-70
2023/06/06 08:07:49;;;;;;;16.27;6.65;;;;;;;;;;5057099;28;25059;-70
2023/06/06 08:10:15;;;;;;;15.68;6.25;;;;;;;;;;5056561;28;25050;-71
2023/06/06 08:12:41;;;;;;;12.02;5.80;;;;;;;;;;5058696;28;25073;-70
2023/06/06 08:15:09;;;;;;;13.15;6.22;;;;;;;;;;5061490;28;25067;-69
2023/06/06 08:17:35;;;;;;;15.50;6.30;;;;;;;;;;5039865;28;25123;-70
2023/06/06 08:20:02;;;;;;;8.02;5.60;;;;;;;;;;5062764;28;25050;-70
2023/06/06 08:22:29;;;;;;;10.85;5.75;;;;;;;;;;5059365;28;25137;-69
2023/06/06 08:24:55;;;;;;;15.07;5.95;;;;;;;;;;5058457;28;25065;-71
2023/06/06 08:27:21;;;;;;;12.15;7.22;;;;;;;;;;5024845;28;25076;-69
2023/06/06 08:29:47;;;;;;;9.48;5.95;;;;;;;;;;5058291;28;24805;-69
2023/06/06 08:32:13;;;;;;;11.77;5.60;;;;;;;;;;5055368;28;25192;-71
2023/06/06 08:34:39;;;;;;;10.90;5.93;;;;;;;;;;5057914;28;25064;-70
2023/06/06 08:37:05;;;;;;;8.55;5.35;;;;;;;;;;5058520;28;25060;-72
2023/06/06 08:39:31;;;;;;;13.38;5.38;;;;;;;;;;5058017;28;25106;-71
2023/06/06 08:41:57;;;;;;;7.82;5.07;;;;;;;;;;5060648;28;25078;-70
2023/06/06 08:44:23;;;;;;;11.02;5.63;;;;;;;;;;5061597;28;25046;-69
2023/06/06 08:46:53;;;;;;;9.80;5.22;;;;;;;;;;5064571;28;25090;-71
2023/06/06 08:49:20;;;;;;;12.88;5.40;;;;;;;;;;5062030;28;25060;-70
2023/06/06 08:51:49;;;;;;;11.80;5.50;;;;;;;;;;5060118;28;25168;-69
2023/06/06 08:54:16;;;;;;;10.70;5.13;;;;;;;;;;5057102;28;25073;-71
2023/06/06 08:56:43;;;;;;;13.40;5.60;;;;;;;;;;5058772;28;25125;-69
2023/06/06 08:59:10;;;;;;;14.48;5.85;;;;;;;;;;5055852;28;25077;-70
2023/06/06 09:01:37;;;;;;;15.40;5.60;;;;;;;;;;5055752;28;25067;-70
2023/06/06 09:04:03;;;;;;;11.63;6.15;;;;;;;;;;5054411;28;25054;-70
2023/06/06 09:06:29;;;;;;;12.88;5.15;;;;;;;;;;5057465;28;25067;-70
2023/06/06 09:08:56;;;;;;;15.18;6.07;;;;;;;;;;5055125;28;25051;-70
2023/06/06 09:11:22;;;;;;;8.32;4.95;;;;;;;;;;5057482;28;25060;-68
2023/06/06 09:13:48;;;;;;;12.80;4.95;;;;;;;;;;5054765;28;25074;-71
2023/06/06 09:16:14;;;;;;;9.57;5.10;;;;;;;;;;5059702;28;24875;-70
2023/06/06 09:18:44;;;;;;;24.40;6.35;;;;;;;;;;5061710;28;25084;-71
2023/06/06 09:21:10;;;;;;;9.77;5.25;;;;;;;;;;5058597;28;25112;-70
2023/06/06 09:23:36;;;;;;;12.05;5.65;;;;;;;;;;5045282;28;25082;-70
2023/06/06 09:26:02;;;;;;;12.85;6.38;;;;;;;;;;5044969;28;25069;-70
2023/06/06 09:28:38;;;;;;;9.93;5.43;;;;;;;;;;5063238;28;25176;-70
2023/06/06 09:31:23;;;;;;;14.23;5.03;;;;;;;;;;5062319;28;25061;-69
2023/06/06 09:33:53;;;;;;;8.98;5.18;;;;;;;;;;5060526;28;25058;-70
2023/06/06 09:36:23;;;;;;;9.40;5.22;;;;;;;;;;5058287;28;25063;-70
2023/06/06 09:38:50;;;;;;;11.23;5.10;;;;;;;;;;5057244;28;25066;-69
2023/06/06 09:41:16;;;;;;;9.75;5.20;;;;;;;;;;5064001;28;25063;-70
2023/06/06 09:43:42;;;;;;;10.18;4.80;;;;;;;;;;5056654;28;25049;-72
2023/06/06 09:46:08;;;;;;;10.88;5.35;;;;;;;;;;5060403;28;25076;-71
2023/06/06 09:48:34;;;;;;;9.75;4.80;;;;;;;;;;5056863;28;25063;-70
2023/06/06 09:51:00;;;;;;;14.77;5.18;;;;;;;;;;5056331;28;25067;-72
2023/06/06 09:53:27;;;;;;;13.02;4.90;;;;;;;;;;5054389;28;25090;-69
2023/06/06 09:55:55;;;;;;;9.13;4.82;;;;;;;;;;5057017;28;25126;-70
2023/06/06 09:58:22;;;;;;;79.53;8.63;;;;;;;;;;5057770;28;25153;-70
2023/06/06 10:00:50;;;;;;;10.38;5.20;;;;;;;;;;5057964;28;25132;-70
2023/06/06 10:03:19;;;;;;;9.48;4.97;;;;;;;;;;5056905;28;25062;-69
2023/06/06 10:05:49;;;;;;;10.43;5.55;;;;;;;;;;5056057;28;25041;-70
2023/06/06 10:08:17;;;;;;;11.15;5.55;;;;;;;;;;5056406;28;25058;-71
2023/06/06 10:10:45;;;;;;;167.82;16.75;;;;;;;;;;5057901;28;25063;-70
2023/06/06 10:13:13;;;;;;;13.55;5.88;;;;;;;;;;5041201;28;25182;-70
2023/06/06 10:15:39;;;;;;;8.02;4.85;;;;;;;;;;5057796;28;25097;-68
2023/06/06 10:18:05;;;;;;;9.23;5.03;;;;;;;;;;5050966;28;25084;-72
2023/06/06 10:20:32;;;;;;;10.63;5.07;;;;;;;;;;5057660;28;25055;-71
2023/06/06 10:23:01;;;;;;;11.05;5.28;;;;;;;;;;5058042;28;25063;-70
2023/06/06 10:25:27;;;;;;;10.35;6.32;;;;;;;;;;5055934;28;25129;-70
2023/06/06 10:27:55;;;;;;;7.85;5.45;;;;;;;;;;5054340;28;25085;-69
2023/06/06 10:30:27;;;;;;;14.00;6.07;;;;;;;;;;5057257;28;25096;-73
2023/06/06 10:32:53;;;;;;;;;;;;;;;;;;5058754;28;25060;-73
2023/06/06 10:35:20;;;;;;;14.32;6.10;;;;;;;;;;5053390;28;25049;-71
2023/06/06 10:38:02;;;;;;;13.40;5.75;;;;;;;;;;5057014;28;25058;-70
2023/06/06 10:40:40;;;;;;;12.13;7.15;;;;;;;;;;5058179;28;25089;-70
2023/06/06 10:43:06;;;;;;;15.63;6.20;;;;;;;;;;5054037;28;25053;-72
2023/06/06 10:45:42;;;;;;;15.75;6.65;;;;;;;;;;5057374;28;25062;-74
2023/06/06 10:48:09;;;;;;;15.40;6.65;;;;;;;;;;5058212;28;25050;-69
2023/06/06 10:50:35;;;;;;;12.75;6.28;;;;;;;;;;5045040;28;25069;-73
2023/06/06 10:53:07;;;;;;;16.63;6.60;;;;;;;;;;5053437;28;25064;-71
2023/06/06 10:55:33;;;;;;;12.48;7.03;;;;;;;;;;5042022;28;25110;-71
2023/06/06 10:58:10;;;;;;;11.75;6.53;;;;;;;;;;5052530;28;25086;-70
2023/06/06 11:00:37;;;;;;;12.00;6.70;;;;;;;;;;5056718;28;25080;-71
2023/06/06 11:03:10;;;;;;;15.00;7.50;;;;;;;;;;5055353;28;25118;-71
2023/06/06 11:05:55;;;;;;;10.75;6.85;;;;;;;;;;5045366;28;25155;-71
2023/06/06 11:08:31;;;;;;;19.17;6.97;;;;;;;;;;5022873;28;25149;-70
2023/06/06 11:11:21;;;;;;;15.38;7.38;;;;;;;;;;5037916;28;25059;-71
2023/06/06 11:13:54;;;;;;;15.73;6.78;;;;;;;;;;5025473;28;25053;-71
2023/06/06 11:16:39;;;;;;;16.25;6.82;;;;;;;;;;5038801;28;25057;-71
2023/06/06 11:19:08;;;;;;;13.52;7.05;;;;;;;;;;5035427;28;25071;-72
2023/06/06 11:21:41;;;;;;;11.88;6.30;;;;;;;;;;5041443;28;25052;-73
2023/06/06 11:24:07;;;;;;;11.60;6.53;;;;;;;;;;5045880;28;25063;-72
2023/06/06 11:26:33;;;;;;;13.50;6.90;;;;;;;;;;5058530;28;25064;-70
2023/06/06 11:29:00;;;;;;;13.38;6.20;;;;;;;;;;5045099;28;25057;-71
2023/06/06 11:31:26;;;;;;;12.85;6.00;;;;;;;;;;5026328;28;25056;-70
2023/06/06 11:33:53;;;;;;;13.75;7.35;;;;;;;;;;5041337;28;25113;-71
2023/06/06 11:36:20;;;;;;;14.75;6.35;;;;;;;;;;5043369;28;25060;-71
2023/06/06 11:38:46;;;;;;;9.60;6.60;;;;;;;;;;5040540;28;25053;-70
2023/06/06 11:41:12;;;;;;;13.80;7.35;;;;;;;;;;5027015;28;25062;-72
2023/06/06 11:43:38;;;;;;;12.90;7.85;;;;;;;;;;5030245;28;25079;-71
2023/06/06 11:46:05;;;;;;;16.35;7.25;;;;;;;;;;5043530;28;25084;-73
2023/06/06 11:48:31;;;;;;;15.35;6.90;;;;;;;;;;5040661;28;25077;-72
2023/06/06 11:50:57;;;;;;;15.73;6.40;;;;;;;;;;5051124;28;25071;-71
2023/06/06 11:53:30;;;;;;;13.23;6.53;;;;;;;;;;5053275;28;25085;-71
2023/06/06 11:55:56;;;;;;;15.32;6.30;;;;;;;;;;5048088;28;25081;-71
2023/06/06 11:58:23;;;;;;;13.20;6.63;;;;;;;;;;5048711;28;25131;-71
2023/06/06 12:00:55;;;;;;;9.23;6.22;;;;;;;;;;5043947;28;25054;-70
2023/06/06 12:03:26;;;;;;;14.10;6.43;;;;;;;;;;5054486;28;25061;-72
2023/06/06 12:05:59;;;;;;;13.30;6.88;;;;;;;;;;5054008;28;25047;-71
2023/06/06 12:08:25;;;;;;;9.95;5.90;;;;;;;;;;5049533;28;25143;-74
2023/06/06 12:10:51;;;;;;;9.48;6.20;;;;;;;;;;5040311;28;25150;-72
2023/06/06 12:13:33;;;;;;;10.30;6.45;;;;;;;;;;5037774;28;25050;-71
2023/06/06 12:15:59;;;;;;;9.40;6.03;;;;;;;;;;5039428;28;25091;-70
2023/06/06 12:18:25;;;;;;;14.13;6.63;;;;;;;;;;5037417;28;25084;-71
2023/06/06 12:20:53;;;;;;;11.02;6.30;;;;;;;;;;5036283;28;25086;-72
2023/06/06 12:23:29;;;;;;;9.88;5.90;;;;;;;;;;5036759;28;25138;-71
2023/06/06 12:25:59;;;;;;;11.88;6.03;;;;;;;;;;5042696;28;25161;-71
2023/06/06 12:28:25;;;;;;;12.13;6.25;;;;;;;;;;5035419;28;25067;-71
2023/06/06 12:30:52;;;;;;;10.50;5.75;;;;;;;;;;5037832;28;25080;-72
2023/06/06 12:33:19;;;;;;;14.10;6.70;;;;;;;;;;5033880;28;25054;-72
2023/06/06 12:35:45;;;;;;;14.52;6.13;;;;;;;;;;5050995;28;25055;-73
2023/06/06 12:38:18;;;;;;;14.93;5.85;;;;;;;;;;5034577;28;25053;-70
2023/06/06 12:40:53;;;;;;;9.63;5.82;;;;;;;;;;5034792;28;25078;-71
2023/06/06 12:43:19;;;;;;;15.60;6.28;;;;;;;;;;5036963;28;25085;-71
2023/06/06 12:45:45;;;;;;;9.15;5.13;;;;;;;;;;5035965;28;25091;-70
2023/06/06 12:48:11;;;;;;;9.90;5.57;;;;;;;;;;5034062;28;25095;-70
2023/06/06 12:50:37;;;;;;;9.98;5.95;;;;;;;;;;5040451;28;25065;-71
2023/06/06 12:53:03;;;;;;;15.25;5.93;;;;;;;;;;5042252;28;25050;-71
2023/06/06 12:55:29;;;;;;;12.10;6.03;;;;;;;;;;5039006;28;25071;-71
2023/06/06 12:57:55;;;;;;;20.77;6.72;;;;;;;;;;5035041;28;25056;-70
2023/06/06 13:00:21;;;;;;;15.65;7.03;;;;;;;;;;5037284;28;25085;-71
2023/06/06 13:02:49;;;;;;;9.95;5.78;;;;;;;;;;5033685;28;25080;-72
2023/06/06 13:05:15;;;;;;;11.88;7.28;;;;;;;;;;5036132;28;25066;-71
2023/06/06 13:07:41;;;;;;;13.88;6.38;;;;;;;;;;5035552;28;25148;-70
2023/06/06 13:10:08;;;;;;;14.30;6.60;;;;;;;;;;5039355;28;25135;-71
2023/06/06 13:12:41;;;;;;;15.27;6.95;;;;;;;;;;5035805;28;25063;-71
2023/06/06 13:15:10;;;;;;;10.40;5.82;;;;;;;;;;5036310;28;25067;-70
2023/06/06 13:17:36;;;;;;;10.43;6.07;;;;;;;;;;5033575;28;25074;-73
2023/06/06 13:20:03;;;;;;;14.32;6.47;;;;;;;;;;5034772;28;25100;-73
2023/06/06 13:22:30;;;;;;;12.82;6.07;;;;;;;;;;5034505;28;25145;-73
2023/06/06 13:24:56;;;;;;;9.75;6.13;;;;;;;;;;5035935;28;25095;-71
2023/06/06 13:27:22;;;;;;;16.10;8.15;;;;;;;;;;5034053;28;25093;-72
2023/06/06 13:29:48;;;;;;;13.43;6.53;;;;;;;;;;5036377;28;25070;-71
2023/06/06 13:32:14;;;;;;;11.82;5.82;;;;;;;;;;5034365;28;25165;-72
2023/06/06 13:34:40;;;;;;;13.52;6.47;;;;;;;;;;5033964;28;25081;-71
2023/06/06 13:37:06;;;;;;;9.63;6.10;;;;;;;;;;5035972;28;25128;-72
2023/06/06 13:39:32;;;;;;;13.20;6.63;;;;;;;;;;5037061;28;25161;-72
2023/06/06 13:41:58;;;;;;;14.02;6.25;;;;;;;;;;5018731;28;25090;-72
2023/06/06 13:44:24;;;;;;;13.95;6.18;;;;;;;;;;5033603;28;25084;-72
2023/06/06 13:46:51;;;;;;;14.40;6.18;;;;;;;;;;5035171;28;25047;-71
2023/06/06 13:49:17;;;;;;;10.55;6.38;;;;;;;;;;5035092;28;25084;-70
2023/06/06 13:51:46;;;;;;;10.88;6.40;;;;;;;;;;5035665;28;25138;-72
2023/06/06 13:54:12;;;;;;;13.32;5.90;;;;;;;;;;5035076;28;25065;-73
2023/06/06 13:56:39;;;;;;;10.88;6.60;;;;;;;;;;5040134;28;25068;-72
2023/06/06 13:59:05;;;;;;;11.10;6.38;;;;;;;;;;5034856;28;25090;-73
2023/06/06 14:01:31;;;;;;;17.40;6.30;;;;;;;;;;5035930;28;25067;-71
2023/06/06 14:03:57;;;;;;;13.98;6.30;;;;;;;;;;5034533;28;25084;-71
2023/06/06 14:06:23;;;;;;;9.82;5.88;;;;;;;;;;5036137;28;25061;-70
2023/06/06 14:08:50;;;;;;;14.93;6.53;;;;;;;;;;5036421;28;25061;-70
2023/06/06 14:11:17;;;;;;;15.70;6.93;;;;;;;;;;5034943;28;25055;-75
2023/06/06 14:13:44;;;;;;;12.95;6.88;;;;;;;;;;5034010;28;25058;-72
2023/06/06 14:16:13;;;;;;;20.10;7.03;;;;;;;;;;5034862;28;25071;-72
2023/06/06 14:18:40;;;;;;;13.27;7.18;;;;;;;;;;5034563;28;25490;-73
2023/06/06 14:23:45;;;;;;;11.07;6.82;;;;;;;;;;5034771;28;25064;-73
2023/06/06 14:26:14;;;;;;;13.80;6.90;;;;;;;;;;5038292;28;25084;-70
2023/06/06 14:28:40;;;;;;;12.77;6.97;;;;;;;;;;5037490;28;25164;-71
2023/06/06 14:31:06;;;;;;;11.07;5.72;;;;;;;;;;5034916;28;25071;-72
2023/06/06 14:33:32;;;;;;;9.82;6.32;;;;;;;;;;5024003;28;25081;-71